sensor_id;sensor_type;location;lat;lon;timestamp;P1;durP1;ratioP1;P2;durP2;ratioP2
13171;SDS011;6651;53.200;10.432;2022-09-09T00:00:14;23.65;;;20.23;;
13171;SDS011;6651;53.200;10.432;2022-09-09T00:02:42;83.47;;;24.65;;
13171;SDS011;6651;53.200;10.432;2022-09-09T00:05:17;33.40;;;20.05;;
13171;SDS011;6651;53.200;10.432;2022-09-09T00:07:47;26.58;;;19.13;;
13171;SDS011;6651;53.200;10.432;2022-09-09T00:10:16;28.58;;;18.08;;
13171;SDS011;6651;53.200;10.432;2022-09-09T00:15:14;39.97;;;19.83;;
13171;SDS011;6651;53.200;10.432;2022-09-09T00:17:47;44.85;;;20.58;;
13171;SDS011;6651;53.200;10.432;2022-09-09T00:22:48;21.13;;;18.80;;
13171;SDS011;6651;53.200;10.432;2022-09-09T00:28:02;19.83;;;17.73;;
13171;SDS011;6651;53.200;10.432;2022-09-09T00:30:31;33.88;;;18.45;;
13171;SDS011;6651;53.200;10.432;2022-09-09T00:33:02;30.77;;;17.77;;
13171;SDS011;6651;53.200;10.432;2022-09-09T00:35:37;20.67;;;17.95;;
13171;SDS011;6651;53.200;10.432;2022-09-09T00:38:13;19.55;;;17.55;;
13171;SDS011;6651;53.200;10.432;2022-09-09T00:46:48;18.85;;;16.95;;
13171;SDS011;6651;53.200;10.432;2022-09-09T00:51:59;30.27;;;17.75;;
13171;SDS011;6651;53.200;10.432;2022-09-09T00:54:38;18.67;;;15.82;;
13171;SDS011;6651;53.200;10.432;2022-09-09T00:59:44;32.15;;;17.35;;
13171;SDS011;6651;53.200;10.432;2022-09-09T01:02:14;98.68;;;20.92;;
13171;SDS011;6651;53.200;10.432;2022-09-09T01:04:41;165.52;;;24.75;;
13171;SDS011;6651;53.200;10.432;2022-09-09T01:07:16;92.40;;;21.23;;
13171;SDS011;6651;53.200;10.432;2022-09-09T01:09:54;101.90;;;21.27;;
13171;SDS011;6651;53.200;10.432;2022-09-09T01:15:12;34.88;;;18.65;;
13171;SDS011;6651;53.200;10.432;2022-09-09T01:17:55;54.45;;;18.98;;
13171;SDS011;6651;53.200;10.432;2022-09-09T01:20:25;23.55;;;17.50;;
13171;SDS011;6651;53.200;10.432;2022-09-09T01:28:30;49.17;;;19.25;;
13171;SDS011;6651;53.200;10.432;2022-09-09T01:30:55;74.40;;;19.85;;
13171;SDS011;6651;53.200;10.432;2022-09-09T01:33:22;26.20;;;16.20;;
13171;SDS011;6651;53.200;10.432;2022-09-09T01:35:59;55.50;;;19.58;;
13171;SDS011;6651;53.200;10.432;2022-09-09T01:38:27;20.25;;;17.35;;
13171;SDS011;6651;53.200;10.432;2022-09-09T01:40:53;29.67;;;18.30;;
13171;SDS011;6651;53.200;10.432;2022-09-09T01:43:20;30.13;;;17.55;;
13171;SDS011;6651;53.200;10.432;2022-09-09T01:45:46;23.30;;;16.35;;
13171;SDS011;6651;53.200;10.432;2022-09-09T01:48:15;23.15;;;16.15;;
13171;SDS011;6651;53.200;10.432;2022-09-09T01:50:41;33.45;;;15.90;;
13171;SDS011;6651;53.200;10.432;2022-09-09T01:53:07;19.05;;;16.88;;
13171;SDS011;6651;53.200;10.432;2022-09-09T01:55:36;21.95;;;16.52;;
13171;SDS011;6651;53.200;10.432;2022-09-09T02:00:56;57.97;;;19.45;;
13171;SDS011;6651;53.200;10.432;2022-09-09T02:03:29;47.95;;;16.80;;
13171;SDS011;6651;53.200;10.432;2022-09-09T02:08:52;16.25;;;14.65;;
13171;SDS011;6651;53.200;10.432;2022-09-09T02:11:20;27.00;;;16.05;;
13171;SDS011;6651;53.200;10.432;2022-09-09T02:13:47;17.83;;;13.15;;
13171;SDS011;6651;53.200;10.432;2022-09-09T02:21:06;39.65;;;13.50;;
13171;SDS011;6651;53.200;10.432;2022-09-09T02:23:33;13.65;;;11.95;;
13171;SDS011;6651;53.200;10.432;2022-09-09T02:26:00;11.13;;;10.05;;
13171;SDS011;6651;53.200;10.432;2022-09-09T02:28:28;13.88;;;12.38;;
13171;SDS011;6651;53.200;10.432;2022-09-09T02:36:49;47.13;;;11.30;;
13171;SDS011;6651;53.200;10.432;2022-09-09T02:39:46;10.48;;;9.48;;
13171;SDS011;6651;53.200;10.432;2022-09-09T02:44:58;15.20;;;10.13;;
13171;SDS011;6651;53.200;10.432;2022-09-09T02:52:27;10.23;;;9.18;;
13171;SDS011;6651;53.200;10.432;2022-09-09T02:54:58;20.95;;;9.75;;
13171;SDS011;6651;53.200;10.432;2022-09-09T02:57:26;109.75;;;14.63;;
13171;SDS011;6651;53.200;10.432;2022-09-09T02:59:55;13.27;;;11.93;;
13171;SDS011;6651;53.200;10.432;2022-09-09T03:02:22;17.63;;;12.65;;
13171;SDS011;6651;53.200;10.432;2022-09-09T03:04:50;18.73;;;11.38;;
13171;SDS011;6651;53.200;10.432;2022-09-09T03:07:17;12.43;;;11.23;;
13171;SDS011;6651;53.200;10.432;2022-09-09T03:09:43;51.03;;;12.25;;
13171;SDS011;6651;53.200;10.432;2022-09-09T03:12:09;15.57;;;10.73;;
13171;SDS011;6651;53.200;10.432;2022-09-09T03:14:36;12.68;;;10.85;;
13171;SDS011;6651;53.200;10.432;2022-09-09T03:17:03;12.05;;;10.95;;
13171;SDS011;6651;53.200;10.432;2022-09-09T03:19:29;13.73;;;10.27;;
13171;SDS011;6651;53.200;10.432;2022-09-09T03:21:55;14.38;;;12.70;;
13171;SDS011;6651;53.200;10.432;2022-09-09T03:24:21;18.98;;;12.65;;
13171;SDS011;6651;53.200;10.432;2022-09-09T03:26:47;29.10;;;14.68;;
13171;SDS011;6651;53.200;10.432;2022-09-09T03:29:15;56.25;;;14.60;;
13171;SDS011;6651;53.200;10.432;2022-09-09T03:31:42;13.95;;;12.48;;
13171;SDS011;6651;53.200;10.432;2022-09-09T03:34:08;12.65;;;11.45;;
13171;SDS011;6651;53.200;10.432;2022-09-09T03:36:35;12.10;;;10.90;;
13171;SDS011;6651;53.200;10.432;2022-09-09T03:39:02;14.80;;;11.43;;
13171;SDS011;6651;53.200;10.432;2022-09-09T03:41:28;13.15;;;11.48;;
13171;SDS011;6651;53.200;10.432;2022-09-09T03:43:54;16.30;;;12.27;;
13171;SDS011;6651;53.200;10.432;2022-09-09T03:46:22;18.75;;;13.60;;
13171;SDS011;6651;53.200;10.432;2022-09-09T03:48:48;12.52;;;11.32;;
13171;SDS011;6651;53.200;10.432;2022-09-09T03:51:14;14.52;;;13.10;;
13171;SDS011;6651;53.200;10.432;2022-09-09T03:53:41;23.55;;;14.25;;
13171;SDS011;6651;53.200;10.432;2022-09-09T03:56:08;14.13;;;12.60;;
13171;SDS011;6651;53.200;10.432;2022-09-09T03:58:34;14.57;;;12.65;;
13171;SDS011;6651;53.200;10.432;2022-09-09T04:01:01;13.38;;;11.98;;
13171;SDS011;6651;53.200;10.432;2022-09-09T04:03:28;14.52;;;13.00;;
13171;SDS011;6651;53.200;10.432;2022-09-09T04:05:54;31.88;;;12.55;;
13171;SDS011;6651;53.200;10.432;2022-09-09T04:08:21;14.30;;;11.07;;
13171;SDS011;6651;53.200;10.432;2022-09-09T04:10:47;12.13;;;10.60;;
13171;SDS011;6651;53.200;10.432;2022-09-09T04:13:14;12.18;;;10.98;;
13171;SDS011;6651;53.200;10.432;2022-09-09T04:15:43;36.03;;;10.43;;
13171;SDS011;6651;53.200;10.432;2022-09-09T04:18:10;14.43;;;10.63;;
13171;SDS011;6651;53.200;10.432;2022-09-09T04:20:36;13.63;;;10.75;;
13171;SDS011;6651;53.200;10.432;2022-09-09T04:23:03;13.32;;;11.93;;
13171;SDS011;6651;53.200;10.432;2022-09-09T04:25:30;12.30;;;11.10;;
13171;SDS011;6651;53.200;10.432;2022-09-09T04:27:56;13.00;;;11.60;;
13171;SDS011;6651;53.200;10.432;2022-09-09T04:30:23;11.82;;;10.73;;
13171;SDS011;6651;53.200;10.432;2022-09-09T04:32:49;12.98;;;11.73;;
13171;SDS011;6651;53.200;10.432;2022-09-09T04:35:15;13.10;;;10.98;;
13171;SDS011;6651;53.200;10.432;2022-09-09T04:37:41;12.77;;;11.32;;
13171;SDS011;6651;53.200;10.432;2022-09-09T04:40:07;17.02;;;12.00;;
13171;SDS011;6651;53.200;10.432;2022-09-09T04:42:37;12.13;;;10.88;;
13171;SDS011;6651;53.200;10.432;2022-09-09T04:45:03;13.60;;;10.70;;
13171;SDS011;6651;53.200;10.432;2022-09-09T04:47:30;12.43;;;10.82;;
13171;SDS011;6651;53.200;10.432;2022-09-09T04:49:56;13.20;;;11.63;;
13171;SDS011;6651;53.200;10.432;2022-09-09T04:52:22;12.02;;;10.77;;
13171;SDS011;6651;53.200;10.432;2022-09-09T04:54:48;11.75;;;9.68;;
13171;SDS011;6651;53.200;10.432;2022-09-09T04:57:14;12.27;;;10.98;;
13171;SDS011;6651;53.200;10.432;2022-09-09T04:59:40;13.20;;;10.43;;
13171;SDS011;6651;53.200;10.432;2022-09-09T05:02:06;13.52;;;10.38;;
13171;SDS011;6651;53.200;10.432;2022-09-09T05:04:32;11.05;;;9.43;;
13171;SDS011;6651;53.200;10.432;2022-09-09T05:06:59;11.88;;;9.77;;
13171;SDS011;6651;53.200;10.432;2022-09-09T05:09:25;11.35;;;10.02;;
13171;SDS011;6651;53.200;10.432;2022-09-09T05:11:51;12.82;;;10.20;;
13171;SDS011;6651;53.200;10.432;2022-09-09T05:14:17;11.65;;;9.60;;
13171;SDS011;6651;53.200;10.432;2022-09-09T05:16:46;9.73;;;8.73;;
13171;SDS011;6651;53.200;10.432;2022-09-09T05:19:14;10.25;;;8.85;;
13171;SDS011;6651;53.200;10.432;2022-09-09T05:21:40;9.10;;;8.20;;
13171;SDS011;6651;53.200;10.432;2022-09-09T05:24:06;10.18;;;8.40;;
13171;SDS011;6651;53.200;10.432;2022-09-09T05:26:32;12.32;;;9.25;;
13171;SDS011;6651;53.200;10.432;2022-09-09T05:28:58;10.27;;;8.70;;
13171;SDS011;6651;53.200;10.432;2022-09-09T05:31:25;9.93;;;7.95;;
13171;SDS011;6651;53.200;10.432;2022-09-09T05:33:53;9.05;;;7.28;;
13171;SDS011;6651;53.200;10.432;2022-09-09T05:36:20;10.13;;;8.00;;
13171;SDS011;6651;53.200;10.432;2022-09-09T05:38:46;10.90;;;8.38;;
13171;SDS011;6651;53.200;10.432;2022-09-09T05:41:13;11.18;;;8.05;;
13171;SDS011;6651;53.200;10.432;2022-09-09T05:43:42;12.25;;;8.35;;
13171;SDS011;6651;53.200;10.432;2022-09-09T05:46:19;10.77;;;8.23;;
13171;SDS011;6651;53.200;10.432;2022-09-09T05:48:45;7.80;;;6.93;;
13171;SDS011;6651;53.200;10.432;2022-09-09T05:51:13;8.60;;;7.00;;
13171;SDS011;6651;53.200;10.432;2022-09-09T05:53:43;9.88;;;7.22;;
13171;SDS011;6651;53.200;10.432;2022-09-09T05:56:10;10.15;;;7.18;;
13171;SDS011;6651;53.200;10.432;2022-09-09T05:58:37;9.02;;;6.90;;
13171;SDS011;6651;53.200;10.432;2022-09-09T06:01:08;8.30;;;6.57;;
13171;SDS011;6651;53.200;10.432;2022-09-09T06:03:39;8.10;;;6.95;;
13171;SDS011;6651;53.200;10.432;2022-09-09T06:06:06;8.75;;;6.80;;
13171;SDS011;6651;53.200;10.432;2022-09-09T06:08:33;10.00;;;5.93;;
13171;SDS011;6651;53.200;10.432;2022-09-09T06:13:31;8.48;;;6.00;;
13171;SDS011;6651;53.200;10.432;2022-09-09T06:15:57;8.32;;;6.25;;
13171;SDS011;6651;53.200;10.432;2022-09-09T06:18:24;7.75;;;6.00;;
13171;SDS011;6651;53.200;10.432;2022-09-09T06:23:20;9.90;;;6.68;;
13171;SDS011;6651;53.200;10.432;2022-09-09T06:25:46;7.55;;;5.55;;
13171;SDS011;6651;53.200;10.432;2022-09-09T06:28:12;7.22;;;5.72;;
13171;SDS011;6651;53.200;10.432;2022-09-09T06:30:38;9.40;;;6.05;;
13171;SDS011;6651;53.200;10.432;2022-09-09T06:33:05;11.82;;;7.55;;
13171;SDS011;6651;53.200;10.432;2022-09-09T06:35:31;10.07;;;8.85;;
13171;SDS011;6651;53.200;10.432;2022-09-09T06:37:57;9.93;;;7.20;;
13171;SDS011;6651;53.200;10.432;2022-09-09T06:40:23;8.18;;;5.85;;
13171;SDS011;6651;53.200;10.432;2022-09-09T06:42:49;12.63;;;6.78;;
13171;SDS011;6651;53.200;10.432;2022-09-09T06:45:15;7.90;;;6.10;;
13171;SDS011;6651;53.200;10.432;2022-09-09T06:47:41;8.45;;;6.60;;
13171;SDS011;6651;53.200;10.432;2022-09-09T06:50:07;8.20;;;6.82;;
13171;SDS011;6651;53.200;10.432;2022-09-09T06:52:35;7.38;;;5.93;;
13171;SDS011;6651;53.200;10.432;2022-09-09T06:55:01;8.88;;;6.50;;
13171;SDS011;6651;53.200;10.432;2022-09-09T06:57:27;7.68;;;6.30;;
13171;SDS011;6651;53.200;10.432;2022-09-09T06:59:53;7.75;;;6.03;;
13171;SDS011;6651;53.200;10.432;2022-09-09T07:02:19;9.65;;;6.35;;
13171;SDS011;6651;53.200;10.432;2022-09-09T07:04:46;7.90;;;6.20;;
13171;SDS011;6651;53.200;10.432;2022-09-09T07:07:12;6.85;;;5.53;;
13171;SDS011;6651;53.200;10.432;2022-09-09T07:09:40;9.60;;;5.70;;
13171;SDS011;6651;53.200;10.432;2022-09-09T07:12:06;9.48;;;5.80;;
13171;SDS011;6651;53.200;10.432;2022-09-09T07:14:32;8.10;;;5.20;;
13171;SDS011;6651;53.200;10.432;2022-09-09T07:17:01;5.93;;;5.32;;
13171;SDS011;6651;53.200;10.432;2022-09-09T07:19:27;6.25;;;5.07;;
13171;SDS011;6651;53.200;10.432;2022-09-09T07:21:53;7.43;;;4.97;;
13171;SDS011;6651;53.200;10.432;2022-09-09T07:24:19;8.35;;;4.57;;
13171;SDS011;6651;53.200;10.432;2022-09-09T07:26:45;5.70;;;4.30;;
13171;SDS011;6651;53.200;10.432;2022-09-09T07:29:11;8.27;;;4.75;;
13171;SDS011;6651;53.200;10.432;2022-09-09T07:31:40;7.35;;;4.35;;
13171;SDS011;6651;53.200;10.432;2022-09-09T07:34:06;5.00;;;3.80;;
13171;SDS011;6651;53.200;10.432;2022-09-09T07:36:33;6.90;;;4.90;;
13171;SDS011;6651;53.200;10.432;2022-09-09T07:39:00;6.25;;;4.55;;
13171;SDS011;6651;53.200;10.432;2022-09-09T07:41:28;6.97;;;3.80;;
13171;SDS011;6651;53.200;10.432;2022-09-09T07:43:55;4.63;;;3.33;;
13171;SDS011;6651;53.200;10.432;2022-09-09T07:46:22;5.60;;;3.60;;
13171;SDS011;6651;53.200;10.432;2022-09-09T07:48:52;5.85;;;3.58;;
13171;SDS011;6651;53.200;10.432;2022-09-09T07:51:20;6.55;;;3.88;;
13171;SDS011;6651;53.200;10.432;2022-09-09T07:53:47;5.30;;;3.40;;
13171;SDS011;6651;53.200;10.432;2022-09-09T07:56:14;6.80;;;3.70;;
13171;SDS011;6651;53.200;10.432;2022-09-09T07:58:46;4.82;;;3.35;;
13171;SDS011;6651;53.200;10.432;2022-09-09T08:01:14;5.38;;;3.25;;
13171;SDS011;6651;53.200;10.432;2022-09-09T08:03:42;4.57;;;3.20;;
13171;SDS011;6651;53.200;10.432;2022-09-09T08:06:09;4.88;;;3.22;;
13171;SDS011;6651;53.200;10.432;2022-09-09T08:08:35;3.42;;;3.13;;
13171;SDS011;6651;53.200;10.432;2022-09-09T08:11:13;6.05;;;3.67;;
13171;SDS011;6651;53.200;10.432;2022-09-09T08:13:40;4.13;;;3.03;;
13171;SDS011;6651;53.200;10.432;2022-09-09T08:16:14;5.35;;;2.58;;
13171;SDS011;6651;53.200;10.432;2022-09-09T08:18:40;4.25;;;2.90;;
13171;SDS011;6651;53.200;10.432;2022-09-09T08:21:13;5.72;;;2.75;;
13171;SDS011;6651;53.200;10.432;2022-09-09T08:23:40;4.20;;;2.70;;
13171;SDS011;6651;53.200;10.432;2022-09-09T08:26:09;3.78;;;2.90;;
13171;SDS011;6651;53.200;10.432;2022-09-09T08:28:35;5.03;;;3.00;;
13171;SDS011;6651;53.200;10.432;2022-09-09T08:31:08;6.55;;;3.10;;
13171;SDS011;6651;53.200;10.432;2022-09-09T08:36:02;4.53;;;2.70;;
13171;SDS011;6651;53.200;10.432;2022-09-09T08:38:28;4.10;;;3.03;;
13171;SDS011;6651;53.200;10.432;2022-09-09T08:40:56;4.68;;;3.30;;
13171;SDS011;6651;53.200;10.432;2022-09-09T08:43:26;5.32;;;3.22;;
13171;SDS011;6651;53.200;10.432;2022-09-09T08:46:02;4.07;;;3.00;;
13171;SDS011;6651;53.200;10.432;2022-09-09T08:48:46;3.33;;;3.00;;
13171;SDS011;6651;53.200;10.432;2022-09-09T08:51:15;5.05;;;3.05;;
13171;SDS011;6651;53.200;10.432;2022-09-09T08:53:44;4.90;;;2.80;;
13171;SDS011;6651;53.200;10.432;2022-09-09T08:56:19;3.80;;;2.63;;
13171;SDS011;6651;53.200;10.432;2022-09-09T08:58:51;4.45;;;2.45;;
13171;SDS011;6651;53.200;10.432;2022-09-09T09:11:27;3.88;;;2.33;;
13171;SDS011;6651;53.200;10.432;2022-09-09T09:14:03;4.72;;;2.40;;
13171;SDS011;6651;53.200;10.432;2022-09-09T09:16:34;3.78;;;2.40;;
13171;SDS011;6651;53.200;10.432;2022-09-09T09:19:04;3.35;;;2.40;;
13171;SDS011;6651;53.200;10.432;2022-09-09T09:21:39;4.18;;;2.28;;
13171;SDS011;6651;53.200;10.432;2022-09-09T09:26:53;4.90;;;2.58;;
13171;SDS011;6651;53.200;10.432;2022-09-09T09:29:19;3.03;;;2.22;;
13171;SDS011;6651;53.200;10.432;2022-09-09T09:31:53;5.15;;;2.33;;
13171;SDS011;6651;53.200;10.432;2022-09-09T09:34:20;4.50;;;2.28;;
13171;SDS011;6651;53.200;10.432;2022-09-09T09:36:53;4.00;;;2.10;;
13171;SDS011;6651;53.200;10.432;2022-09-09T09:39:24;3.65;;;2.20;;
13171;SDS011;6651;53.200;10.432;2022-09-09T09:41:50;5.13;;;2.33;;
13171;SDS011;6651;53.200;10.432;2022-09-09T09:44:21;6.95;;;2.47;;
13171;SDS011;6651;53.200;10.432;2022-09-09T09:46:48;5.35;;;2.33;;
13171;SDS011;6651;53.200;10.432;2022-09-09T09:49:14;5.45;;;2.25;;
13171;SDS011;6651;53.200;10.432;2022-09-09T09:51:40;4.57;;;2.00;;
13171;SDS011;6651;53.200;10.432;2022-09-09T09:56:43;6.03;;;2.40;;
13171;SDS011;6651;53.200;10.432;2022-09-09T09:59:20;4.57;;;2.30;;
13171;SDS011;6651;53.200;10.432;2022-09-09T10:02:05;4.60;;;2.28;;
13171;SDS011;6651;53.200;10.432;2022-09-09T10:04:33;3.35;;;1.95;;
13171;SDS011;6651;53.200;10.432;2022-09-09T10:06:59;5.85;;;2.38;;
13171;SDS011;6651;53.200;10.432;2022-09-09T10:09:36;4.32;;;2.30;;
13171;SDS011;6651;53.200;10.432;2022-09-09T10:19:39;3.83;;;2.10;;
13171;SDS011;6651;53.200;10.432;2022-09-09T10:27:26;4.25;;;2.00;;
13171;SDS011;6651;53.200;10.432;2022-09-09T10:37:27;5.93;;;2.28;;
13171;SDS011;6651;53.200;10.432;2022-09-09T10:42:41;3.33;;;1.65;;
13171;SDS011;6651;53.200;10.432;2022-09-09T10:47:42;3.25;;;1.70;;
13171;SDS011;6651;53.200;10.432;2022-09-09T10:55:13;3.65;;;1.73;;
13171;SDS011;6651;53.200;10.432;2022-09-09T11:02:39;5.07;;;1.88;;
13171;SDS011;6651;53.200;10.432;2022-09-09T11:07:40;3.75;;;1.98;;
13171;SDS011;6651;53.200;10.432;2022-09-09T11:10:34;4.10;;;1.52;;
13171;SDS011;6651;53.200;10.432;2022-09-09T11:13:03;3.38;;;1.55;;
13171;SDS011;6651;53.200;10.432;2022-09-09T11:15:39;2.95;;;1.45;;
13171;SDS011;6651;53.200;10.432;2022-09-09T11:18:07;2.90;;;1.50;;
13171;SDS011;6651;53.200;10.432;2022-09-09T11:20:35;2.83;;;1.50;;
13171;SDS011;6651;53.200;10.432;2022-09-09T11:23:05;2.63;;;1.50;;
13171;SDS011;6651;53.200;10.432;2022-09-09T11:25:36;3.65;;;1.45;;
13171;SDS011;6651;53.200;10.432;2022-09-09T11:28:09;3.17;;;1.60;;
13171;SDS011;6651;53.200;10.432;2022-09-09T11:33:16;2.72;;;1.55;;
13171;SDS011;6651;53.200;10.432;2022-09-09T11:35:58;3.10;;;1.40;;
13171;SDS011;6651;53.200;10.432;2022-09-09T11:38:46;2.65;;;1.50;;
13171;SDS011;6651;53.200;10.432;2022-09-09T11:41:12;4.68;;;1.80;;
13171;SDS011;6651;53.200;10.432;2022-09-09T11:43:40;4.00;;;2.17;;
13171;SDS011;6651;53.200;10.432;2022-09-09T11:46:08;3.28;;;1.60;;
13171;SDS011;6651;53.200;10.432;2022-09-09T11:48:39;4.45;;;2.03;;
13171;SDS011;6651;53.200;10.432;2022-09-09T11:51:11;2.50;;;1.60;;
13171;SDS011;6651;53.200;10.432;2022-09-09T11:53:48;4.88;;;1.90;;
13171;SDS011;6651;53.200;10.432;2022-09-09T11:56:23;4.30;;;2.08;;
13171;SDS011;6651;53.200;10.432;2022-09-09T12:01:29;2.20;;;1.80;;
13171;SDS011;6651;53.200;10.432;2022-09-09T12:04:01;3.80;;;2.10;;
13171;SDS011;6651;53.200;10.432;2022-09-09T12:06:31;3.58;;;1.83;;
13171;SDS011;6651;53.200;10.432;2022-09-09T12:09:05;3.83;;;1.98;;
13171;SDS011;6651;53.200;10.432;2022-09-09T12:11:32;3.03;;;2.20;;
13171;SDS011;6651;53.200;10.432;2022-09-09T12:13:58;3.65;;;1.90;;
13171;SDS011;6651;53.200;10.432;2022-09-09T12:16:29;4.43;;;2.00;;
13171;SDS011;6651;53.200;10.432;2022-09-09T12:19:03;3.33;;;1.75;;
13171;SDS011;6651;53.200;10.432;2022-09-09T12:21:37;2.58;;;1.60;;
13171;SDS011;6651;53.200;10.432;2022-09-09T12:24:09;2.38;;;1.80;;
13171;SDS011;6651;53.200;10.432;2022-09-09T12:26:43;3.25;;;1.88;;
13171;SDS011;6651;53.200;10.432;2022-09-09T12:32:10;4.47;;;2.20;;
13171;SDS011;6651;53.200;10.432;2022-09-09T12:34:44;2.83;;;1.95;;
13171;SDS011;6651;53.200;10.432;2022-09-09T12:37:14;3.17;;;2.10;;
13171;SDS011;6651;53.200;10.432;2022-09-09T12:39:51;2.97;;;2.00;;
13171;SDS011;6651;53.200;10.432;2022-09-09T12:42:20;6.22;;;2.20;;
13171;SDS011;6651;53.200;10.432;2022-09-09T12:44:53;3.35;;;1.70;;
13171;SDS011;6651;53.200;10.432;2022-09-09T12:47:21;3.85;;;1.70;;
13171;SDS011;6651;53.200;10.432;2022-09-09T12:49:48;5.68;;;1.90;;
13171;SDS011;6651;53.200;10.432;2022-09-09T12:54:44;4.15;;;2.20;;
13171;SDS011;6651;53.200;10.432;2022-09-09T12:57:11;4.53;;;1.92;;
13171;SDS011;6651;53.200;10.432;2022-09-09T12:59:39;3.70;;;1.90;;
13171;SDS011;6651;53.200;10.432;2022-09-09T13:02:14;3.65;;;2.22;;
13171;SDS011;6651;53.200;10.432;2022-09-09T13:04:42;3.63;;;2.00;;
13171;SDS011;6651;53.200;10.432;2022-09-09T13:07:09;5.28;;;2.53;;
13171;SDS011;6651;53.200;10.432;2022-09-09T13:09:36;3.80;;;2.40;;
13171;SDS011;6651;53.200;10.432;2022-09-09T13:12:02;5.18;;;2.50;;
13171;SDS011;6651;53.200;10.432;2022-09-09T13:14:33;4.07;;;2.20;;
13171;SDS011;6651;53.200;10.432;2022-09-09T13:17:02;3.92;;;2.08;;
13171;SDS011;6651;53.200;10.432;2022-09-09T13:19:29;2.72;;;1.95;;
13171;SDS011;6651;53.200;10.432;2022-09-09T13:21:56;2.85;;;2.10;;
13171;SDS011;6651;53.200;10.432;2022-09-09T13:24:32;3.28;;;2.10;;
13171;SDS011;6651;53.200;10.432;2022-09-09T13:27:00;4.13;;;1.98;;
13171;SDS011;6651;53.200;10.432;2022-09-09T13:29:27;4.00;;;2.20;;
13171;SDS011;6651;53.200;10.432;2022-09-09T13:31:53;2.78;;;2.05;;
13171;SDS011;6651;53.200;10.432;2022-09-09T13:34:26;3.58;;;2.20;;
13171;SDS011;6651;53.200;10.432;2022-09-09T13:36:52;2.50;;;1.90;;
13171;SDS011;6651;53.200;10.432;2022-09-09T13:39:19;4.60;;;2.20;;
13171;SDS011;6651;53.200;10.432;2022-09-09T13:41:46;3.72;;;2.20;;
13171;SDS011;6651;53.200;10.432;2022-09-09T13:44:28;3.78;;;2.35;;
13171;SDS011;6651;53.200;10.432;2022-09-09T13:49:39;3.03;;;2.17;;
13171;SDS011;6651;53.200;10.432;2022-09-09T13:52:10;3.67;;;2.20;;
13171;SDS011;6651;53.200;10.432;2022-09-09T13:54:37;4.07;;;2.30;;
13171;SDS011;6651;53.200;10.432;2022-09-09T13:57:03;4.30;;;2.90;;
13171;SDS011;6651;53.200;10.432;2022-09-09T13:59:29;5.53;;;2.85;;
13171;SDS011;6651;53.200;10.432;2022-09-09T14:01:56;4.35;;;2.25;;
13171;SDS011;6651;53.200;10.432;2022-09-09T14:04:22;2.92;;;1.10;;
13171;SDS011;6651;53.200;10.432;2022-09-09T14:06:49;3.10;;;1.20;;
13171;SDS011;6651;53.200;10.432;2022-09-09T14:09:16;2.53;;;1.40;;
13171;SDS011;6651;53.200;10.432;2022-09-09T14:11:43;2.05;;;0.93;;
13171;SDS011;6651;53.200;10.432;2022-09-09T14:14:10;1.95;;;1.08;;
13171;SDS011;6651;53.200;10.432;2022-09-09T14:16:36;2.53;;;1.17;;
13171;SDS011;6651;53.200;10.432;2022-09-09T14:19:03;1.95;;;1.00;;
13171;SDS011;6651;53.200;10.432;2022-09-09T14:21:29;2.90;;;1.27;;
13171;SDS011;6651;53.200;10.432;2022-09-09T14:23:55;2.45;;;1.05;;
13171;SDS011;6651;53.200;10.432;2022-09-09T14:26:23;2.33;;;0.90;;
13171;SDS011;6651;53.200;10.432;2022-09-09T14:28:49;2.33;;;1.10;;
13171;SDS011;6651;53.200;10.432;2022-09-09T14:31:16;3.03;;;1.00;;
13171;SDS011;6651;53.200;10.432;2022-09-09T14:33:43;2.38;;;1.30;;
13171;SDS011;6651;53.200;10.432;2022-09-09T14:36:09;5.15;;;1.23;;
13171;SDS011;6651;53.200;10.432;2022-09-09T14:38:36;2.05;;;0.82;;
13171;SDS011;6651;53.200;10.432;2022-09-09T14:41:04;2.15;;;0.85;;
13171;SDS011;6651;53.200;10.432;2022-09-09T14:43:30;3.63;;;1.08;;
13171;SDS011;6651;53.200;10.432;2022-09-09T14:45:57;2.08;;;1.08;;
13171;SDS011;6651;53.200;10.432;2022-09-09T14:48:23;2.08;;;1.10;;
13171;SDS011;6651;53.200;10.432;2022-09-09T14:50:49;4.15;;;1.08;;
13171;SDS011;6651;53.200;10.432;2022-09-09T14:53:16;0.95;;;0.70;;
13171;SDS011;6651;53.200;10.432;2022-09-09T14:55:42;3.30;;;1.38;;
13171;SDS011;6651;53.200;10.432;2022-09-09T14:58:08;1.65;;;0.70;;
13171;SDS011;6651;53.200;10.432;2022-09-09T15:00:34;1.88;;;1.00;;
13171;SDS011;6651;53.200;10.432;2022-09-09T15:03:00;2.92;;;1.10;;
13171;SDS011;6651;53.200;10.432;2022-09-09T15:05:26;1.90;;;1.10;;
13171;SDS011;6651;53.200;10.432;2022-09-09T15:07:53;3.78;;;1.38;;
13171;SDS011;6651;53.200;10.432;2022-09-09T15:10:19;2.53;;;1.38;;
13171;SDS011;6651;53.200;10.432;2022-09-09T15:12:46;3.90;;;1.40;;
13171;SDS011;6651;53.200;10.432;2022-09-09T15:15:11;2.70;;;1.38;;
13171;SDS011;6651;53.200;10.432;2022-09-09T15:17:37;1.92;;;1.30;;
13171;SDS011;6651;53.200;10.432;2022-09-09T15:20:03;2.47;;;1.65;;
13171;SDS011;6651;53.200;10.432;2022-09-09T15:22:30;3.08;;;1.42;;
13171;SDS011;6651;53.200;10.432;2022-09-09T15:24:56;2.70;;;1.50;;
13171;SDS011;6651;53.200;10.432;2022-09-09T15:27:22;2.88;;;1.50;;
13171;SDS011;6651;53.200;10.432;2022-09-09T15:29:49;2.20;;;1.60;;
13171;SDS011;6651;53.200;10.432;2022-09-09T15:32:16;1.52;;;1.42;;
13171;SDS011;6651;53.200;10.432;2022-09-09T15:34:42;2.65;;;1.73;;
13171;SDS011;6651;53.200;10.432;2022-09-09T15:37:11;3.13;;;1.67;;
13171;SDS011;6651;53.200;10.432;2022-09-09T15:39:40;5.18;;;1.77;;
13171;SDS011;6651;53.200;10.432;2022-09-09T15:42:06;2.30;;;1.65;;
13171;SDS011;6651;53.200;10.432;2022-09-09T15:44:42;2.33;;;1.70;;
13171;SDS011;6651;53.200;10.432;2022-09-09T15:47:12;3.70;;;1.80;;
13171;SDS011;6651;53.200;10.432;2022-09-09T15:49:38;3.45;;;1.70;;
13171;SDS011;6651;53.200;10.432;2022-09-09T15:52:04;2.38;;;1.60;;
13171;SDS011;6651;53.200;10.432;2022-09-09T15:54:31;1.67;;;1.40;;
13171;SDS011;6651;53.200;10.432;2022-09-09T15:56:58;3.03;;;1.60;;
13171;SDS011;6651;53.200;10.432;2022-09-09T15:59:25;4.43;;;1.60;;
13171;SDS011;6651;53.200;10.432;2022-09-09T16:01:52;1.48;;;1.17;;
13171;SDS011;6651;53.200;10.432;2022-09-09T16:04:20;1.58;;;1.48;;
13171;SDS011;6651;53.200;10.432;2022-09-09T16:06:56;2.03;;;1.40;;
13171;SDS011;6651;53.200;10.432;2022-09-09T16:09:23;4.25;;;1.70;;
13171;SDS011;6651;53.200;10.432;2022-09-09T16:11:49;3.05;;;1.40;;
13171;SDS011;6651;53.200;10.432;2022-09-09T16:14:16;5.03;;;1.65;;
13171;SDS011;6651;53.200;10.432;2022-09-09T16:16:42;2.53;;;1.33;;
13171;SDS011;6651;53.200;10.432;2022-09-09T16:19:12;2.20;;;1.60;;
13171;SDS011;6651;53.200;10.432;2022-09-09T16:21:43;3.20;;;1.60;;
13171;SDS011;6651;53.200;10.432;2022-09-09T16:24:10;2.28;;;1.27;;
13171;SDS011;6651;53.200;10.432;2022-09-09T16:26:37;1.85;;;1.30;;
13171;SDS011;6651;53.200;10.432;2022-09-09T16:29:03;2.88;;;1.33;;
13171;SDS011;6651;53.200;10.432;2022-09-09T16:31:30;1.92;;;1.45;;
13171;SDS011;6651;53.200;10.432;2022-09-09T16:33:59;2.70;;;1.17;;
13171;SDS011;6651;53.200;10.432;2022-09-09T16:36:27;3.15;;;1.60;;
13171;SDS011;6651;53.200;10.432;2022-09-09T16:38:56;1.73;;;1.60;;
13171;SDS011;6651;53.200;10.432;2022-09-09T16:41:22;3.20;;;1.48;;
13171;SDS011;6651;53.200;10.432;2022-09-09T16:43:59;3.22;;;1.50;;
13171;SDS011;6651;53.200;10.432;2022-09-09T16:46:26;3.60;;;1.65;;
13171;SDS011;6651;53.200;10.432;2022-09-09T16:48:53;2.80;;;1.50;;
13171;SDS011;6651;53.200;10.432;2022-09-09T16:51:26;1.90;;;1.27;;